createdAt,value
2022-11-08T00:00:04.488Z,1005.6
2022-11-08T00:01:04.487Z,1005.6
2022-11-08T00:02:04.642Z,1005.6
2022-11-08T00:03:04.551Z,1005.6
2022-11-08T00:04:04.494Z,1005.6
2022-11-08T00:05:04.513Z,1005.6
2022-11-08T00:06:04.485Z,1005.6
2022-11-08T00:07:04.490Z,1005.6
2022-11-08T00:08:04.490Z,1005.6
2022-11-08T00:09:05.472Z,1005.6
2022-11-08T00:10:04.482Z,1005.6
2022-11-08T00:11:04.536Z,1005.6
2022-11-08T00:12:04.501Z,1005.6
2022-11-08T00:13:04.497Z,1005.6
2022-11-08T00:14:04.558Z,1005.5
2022-11-08T00:15:04.570Z,1005.4
2022-11-08T00:16:04.589Z,1005.4
2022-11-08T00:17:04.583Z,1005.4
2022-11-08T00:18:04.559Z,1005.4
2022-11-08T00:19:04.530Z,1005.4
2022-11-08T00:20:04.596Z,1005.4
2022-11-08T00:21:04.500Z,1005.4
2022-11-08T00:22:04.494Z,1005.4
2022-11-08T00:23:04.527Z,1005.4
2022-11-08T00:24:04.501Z,1005.4
2022-11-08T00:25:04.507Z,1005.4
2022-11-08T00:26:04.488Z,1005.4
2022-11-08T00:27:04.496Z,1005.4
2022-11-08T00:28:04.493Z,1005.3
2022-11-08T00:29:04.564Z,1005.3
2022-11-08T00:30:04.506Z,1005.3
2022-11-08T00:31:04.517Z,1005.3
2022-11-08T00:32:04.496Z,1005.3
2022-11-08T00:33:04.506Z,1005.3
2022-11-08T00:34:04.501Z,1005.3
2022-11-08T00:35:04.540Z,1005.3
2022-11-08T00:36:04.510Z,1005.3
2022-11-08T00:37:04.504Z,1005.2
2022-11-08T00:38:04.500Z,1005.2
2022-11-08T00:39:04.503Z,1005.3
2022-11-08T00:40:04.509Z,1005.3
2022-11-08T00:42:31.964Z,1005.3
2022-11-08T00:42:35.926Z,1005.3
2022-11-08T00:43:04.499Z,1005.3
2022-11-08T00:44:04.531Z,1005.3
2022-11-08T00:45:04.511Z,1005.3
2022-11-08T00:46:04.510Z,1005.3
2022-11-08T00:47:04.509Z,1005.3
2022-11-08T00:48:04.499Z,1005.3
2022-11-08T00:49:04.502Z,1005.3
2022-11-08T00:50:04.538Z,1005.3
2022-11-08T00:51:04.514Z,1005.3
2022-11-08T00:52:04.500Z,1005.3
2022-11-08T00:53:04.506Z,1005.3
2022-11-08T00:54:04.501Z,1005.3
2022-11-08T00:55:04.507Z,1005.3
2022-11-08T00:56:04.559Z,1005.2
2022-11-08T00:57:04.521Z,1005.3
2022-11-08T00:58:04.514Z,1005.2
2022-11-08T00:59:04.514Z,1005.2
2022-11-08T01:00:04.571Z,1005.2
2022-11-08T01:01:04.553Z,1005.2
2022-11-08T01:02:04.673Z,1005.2
2022-11-08T01:03:04.520Z,1005.2
2022-11-08T01:04:04.508Z,1005.2
2022-11-08T01:05:04.509Z,1005.1
2022-11-08T01:06:04.508Z,1005.1
2022-11-08T01:07:04.519Z,1005.1
2022-11-08T01:08:04.532Z,1005.1
2022-11-08T01:09:04.518Z,1005.1
2022-11-08T01:10:04.505Z,1005.1
2022-11-08T01:11:04.546Z,1005.1
2022-11-08T01:12:04.514Z,1005.1
2022-11-08T01:13:04.507Z,1005.1
2022-11-08T01:14:05.444Z,1005.0
2022-11-08T01:15:04.564Z,1005.1
2022-11-08T01:16:04.507Z,1005.1
2022-11-08T01:17:04.516Z,1005.1
2022-11-08T01:18:04.519Z,1005.1
2022-11-08T01:19:04.520Z,1005.0
2022-11-08T01:20:04.540Z,1005.1
2022-11-08T01:21:04.562Z,1005.1
2022-11-08T01:22:04.518Z,1005.1
2022-11-08T01:23:04.524Z,1005.0
2022-11-08T01:24:04.507Z,1005.0
2022-11-08T01:25:04.542Z,1005.0
2022-11-08T01:26:04.549Z,1005.0
2022-11-08T01:27:04.516Z,1005.0
2022-11-08T01:28:04.516Z,1005.0
2022-11-08T01:29:04.515Z,1005.0
2022-11-08T01:30:04.506Z,1004.9
2022-11-08T01:31:04.522Z,1004.9
2022-11-08T01:32:04.565Z,1004.9
2022-11-08T01:33:04.529Z,1004.8
2022-11-08T01:34:04.518Z,1004.8
2022-11-08T01:35:04.532Z,1004.8
2022-11-08T01:36:04.516Z,1004.8
2022-11-08T01:37:04.514Z,1004.8
2022-11-08T01:38:04.550Z,1004.8
2022-11-08T01:39:04.519Z,1004.8
2022-11-08T01:40:11.269Z,1004.7
2022-11-08T01:41:03.972Z,1004.8
2022-11-08T01:42:03.997Z,1004.7
2022-11-08T01:43:03.979Z,1004.7
2022-11-08T01:44:10.716Z,1004.7
2022-11-08T01:45:04.438Z,1004.7
2022-11-08T01:46:13.817Z,1004.7
2022-11-08T01:47:05.258Z,1004.7
2022-11-08T01:48:04.579Z,1004.7
2022-11-08T01:49:04.740Z,1004.7
2022-11-08T01:50:04.537Z,1004.7
2022-11-08T01:51:04.541Z,1004.7
2022-11-08T01:52:04.521Z,1004.7
2022-11-08T01:53:04.542Z,1004.7
2022-11-08T01:54:04.545Z,1004.7
2022-11-08T01:55:04.728Z,1004.6
2022-11-08T01:56:04.545Z,1004.6
2022-11-08T01:57:04.541Z,1004.6
2022-11-08T01:58:04.527Z,1004.6
2022-11-08T01:59:04.544Z,1004.6
2022-11-08T02:00:04.542Z,1004.6
2022-11-08T02:01:04.646Z,1004.6
2022-11-08T02:02:04.641Z,1004.6
2022-11-08T02:03:04.527Z,1004.6
2022-11-08T02:04:04.589Z,1004.5
2022-11-08T02:05:04.540Z,1004.5
2022-11-08T02:06:04.571Z,1004.6
2022-11-08T02:07:04.527Z,1004.5
2022-11-08T02:08:04.561Z,1004.5
2022-11-08T02:09:04.530Z,1004.5
2022-11-08T02:10:04.615Z,1004.5
2022-11-08T02:11:04.529Z,1004.5
2022-11-08T02:12:04.545Z,1004.5
2022-11-08T02:13:05.529Z,1004.5
2022-11-08T02:14:04.624Z,1004.5
2022-11-08T02:15:04.531Z,1004.5
2022-11-08T02:16:04.590Z,1004.5
2022-11-08T02:17:04.549Z,1004.4
2022-11-08T02:18:04.537Z,1004.5
2022-11-08T02:19:04.540Z,1004.4
2022-11-08T02:20:04.710Z,1004.4
2022-11-08T02:21:04.537Z,1004.4
2022-11-08T02:22:04.568Z,1004.5
2022-11-08T02:23:04.534Z,1004.5
2022-11-08T02:24:04.533Z,1004.5
2022-11-08T02:25:04.531Z,1004.5
2022-11-08T02:26:04.549Z,1004.5
2022-11-08T02:27:04.534Z,1004.5
2022-11-08T02:28:04.566Z,1004.4
2022-11-08T02:29:04.583Z,1004.4
2022-11-08T02:30:04.538Z,1004.4
2022-11-08T02:31:04.540Z,1004.4
2022-11-08T02:32:04.541Z,1004.4
2022-11-08T02:34:54.854Z,1004.3
2022-11-08T02:35:04.541Z,1004.4
2022-11-08T02:36:04.548Z,1004.4
2022-11-08T02:37:04.568Z,1004.4
2022-11-08T02:38:04.552Z,1004.4
2022-11-08T02:39:04.563Z,1004.4
2022-11-08T02:40:04.669Z,1004.4
2022-11-08T02:41:04.539Z,1004.4
2022-11-08T02:42:04.545Z,1004.4
2022-11-08T02:43:04.553Z,1004.4
2022-11-08T02:44:04.584Z,1004.4
2022-11-08T02:45:04.558Z,1004.4
2022-11-08T02:46:04.575Z,1004.4
2022-11-08T02:47:04.545Z,1004.3
2022-11-08T02:48:04.553Z,1004.3
2022-11-08T02:49:05.350Z,1004.3
2022-11-08T02:50:04.556Z,1004.3
2022-11-08T02:51:04.645Z,1004.3
2022-11-08T02:52:06.799Z,1004.3
2022-11-08T02:53:04.847Z,1004.3
2022-11-08T02:54:04.561Z,1004.3
2022-11-08T02:55:04.616Z,1004.3
2022-11-08T02:56:04.561Z,1004.3
2022-11-08T02:57:04.548Z,1004.3
2022-11-08T02:58:04.614Z,1004.3
2022-11-08T02:59:04.584Z,1004.2
2022-11-08T03:00:04.563Z,1004.2
2022-11-08T03:01:11.302Z,1004.2
2022-11-08T03:02:04.898Z,1004.2
2022-11-08T03:03:04.833Z,1004.2
2022-11-08T03:04:04.094Z,1004.2
2022-11-08T03:05:04.342Z,1004.2
2022-11-08T03:06:03.996Z,1004.2
2022-11-08T03:07:04.058Z,1004.2
2022-11-08T03:08:03.991Z,1004.2
2022-11-08T03:09:04.058Z,1004.2
2022-11-08T03:10:04.041Z,1004.2
2022-11-08T03:11:03.987Z,1004.2
2022-11-08T03:12:04.161Z,1004.2
2022-11-08T03:13:03.990Z,1004.2
2022-11-08T03:14:03.987Z,1004.2
2022-11-08T03:15:03.994Z,1004.2
2022-11-08T03:16:04.049Z,1004.2
2022-11-08T03:17:04.034Z,1004.2
2022-11-08T03:18:04.063Z,1004.2
2022-11-08T03:19:04.018Z,1004.2
2022-11-08T03:20:03.991Z,1004.2
2022-11-08T03:21:05.220Z,1004.2
2022-11-08T03:22:04.041Z,1004.2
2022-11-08T03:23:03.991Z,1004.2
2022-11-08T03:24:03.996Z,1004.1
2022-11-08T03:25:03.989Z,1004.1
2022-11-08T03:26:03.996Z,1004.1
2022-11-08T03:27:04.000Z,1004.1
2022-11-08T03:28:04.036Z,1004.1
2022-11-08T03:29:03.995Z,1004.0
2022-11-08T03:30:03.999Z,1004.1
2022-11-08T03:31:03.992Z,1004.2
2022-11-08T03:32:04.000Z,1004.1
2022-11-08T03:33:03.996Z,1004.1
2022-11-08T03:34:04.021Z,1004.1
2022-11-08T03:35:03.993Z,1004.1
2022-11-08T03:36:04.001Z,1004.0
2022-11-08T03:37:04.002Z,1004.0
2022-11-08T03:38:04.008Z,1004.0
2022-11-08T03:39:04.002Z,1004.0
2022-11-08T03:40:04.042Z,1004.0
2022-11-08T03:41:04.050Z,1004.0
2022-11-08T03:42:04.007Z,1004.0
2022-11-08T03:43:03.995Z,1004.0
2022-11-08T03:44:04.008Z,1004.0
2022-11-08T03:45:04.097Z,1003.9
2022-11-08T03:46:04.039Z,1003.9
2022-11-08T03:47:03.999Z,1003.9
2022-11-08T03:48:04.006Z,1003.9
2022-11-08T03:49:04.001Z,1003.8
2022-11-08T03:50:04.015Z,1003.8
2022-11-08T03:51:03.997Z,1003.8
2022-11-08T03:52:04.035Z,1003.8
2022-11-08T03:53:04.007Z,1003.8
2022-11-08T03:54:04.055Z,1003.8
2022-11-08T03:55:04.001Z,1003.8
2022-11-08T03:56:04.009Z,1003.7
2022-11-08T03:57:04.008Z,1003.7
2022-11-08T03:58:04.007Z,1003.7
2022-11-08T03:59:04.927Z,1003.7
2022-11-08T04:00:04.069Z,1003.7
2022-11-08T04:01:04.209Z,1003.7
2022-11-08T04:02:04.162Z,1003.7
2022-11-08T04:03:04.016Z,1003.7
2022-11-08T04:04:04.008Z,1003.7
2022-11-08T04:05:04.005Z,1003.7
2022-11-08T04:06:04.037Z,1003.6
2022-11-08T04:07:04.014Z,1003.7
2022-11-08T04:08:04.005Z,1003.7
2022-11-08T04:09:04.008Z,1003.7
2022-11-08T04:10:47.927Z,1003.7
2022-11-08T04:11:04.017Z,1003.7
2022-11-08T04:12:04.028Z,1003.7
2022-11-08T04:13:04.012Z,1003.7
2022-11-08T04:14:04.047Z,1003.7
2022-11-08T04:15:04.042Z,1003.7
2022-11-08T04:16:04.072Z,1003.7
2022-11-08T04:17:04.026Z,1003.6
2022-11-08T04:18:04.006Z,1003.6
2022-11-08T04:19:04.009Z,1003.6
2022-11-08T04:20:04.070Z,1003.7
2022-11-08T04:21:04.022Z,1003.7
2022-11-08T04:22:04.026Z,1003.7
2022-11-08T04:23:04.017Z,1003.7
2022-11-08T04:24:04.012Z,1003.6
2022-11-08T04:25:04.018Z,1003.6
2022-11-08T04:26:04.062Z,1003.6
2022-11-08T04:27:04.021Z,1003.6
2022-11-08T04:28:04.029Z,1003.5
2022-11-08T04:29:04.019Z,1003.5
2022-11-08T04:30:04.044Z,1003.5
2022-11-08T04:31:04.016Z,1003.5
2022-11-08T04:32:04.050Z,1003.5
2022-11-08T04:33:04.009Z,1003.5
2022-11-08T04:34:04.064Z,1003.6
2022-11-08T04:35:04.015Z,1003.6
2022-11-08T04:36:04.017Z,1003.6
2022-11-08T04:37:04.026Z,1003.5
2022-11-08T04:38:04.020Z,1003.5
2022-11-08T04:39:04.024Z,1003.6
2022-11-08T04:40:04.037Z,1003.6
2022-11-08T04:41:04.014Z,1003.6
2022-11-08T04:42:04.021Z,1003.6
2022-11-08T04:43:04.013Z,1003.6
2022-11-08T04:44:04.060Z,1003.6
2022-11-08T04:45:04.028Z,1003.6
2022-11-08T04:46:04.021Z,1003.5
2022-11-08T04:47:04.031Z,1003.5
2022-11-08T04:48:04.019Z,1003.5
2022-11-08T04:49:04.011Z,1003.5
2022-11-08T04:50:04.060Z,1003.6
2022-11-08T04:51:05.040Z,1003.6
2022-11-08T04:52:04.026Z,1003.7
2022-11-08T04:53:04.021Z,1003.6
2022-11-08T04:54:04.026Z,1003.6
2022-11-08T04:55:04.023Z,1003.5
2022-11-08T04:56:04.076Z,1003.5
2022-11-08T04:57:04.021Z,1003.6
2022-11-08T04:58:04.030Z,1003.6
2022-11-08T04:59:07.260Z,1003.6
2022-11-08T05:00:04.025Z,1003.5
2022-11-08T05:01:04.129Z,1003.5
2022-11-08T05:02:04.217Z,1003.5
2022-11-08T05:03:04.018Z,1003.5
2022-11-08T05:04:04.039Z,1003.5
2022-11-08T05:05:04.031Z,1003.5
2022-11-08T05:06:04.028Z,1003.4
2022-11-08T05:07:04.028Z,1003.4
2022-11-08T05:08:04.063Z,1003.4
2022-11-08T05:09:04.022Z,1003.4
2022-11-08T05:10:04.062Z,1003.4
2022-11-08T05:11:04.021Z,1003.4
2022-11-08T05:12:04.026Z,1003.4
2022-11-08T05:13:04.033Z,1003.4
2022-11-08T05:14:04.063Z,1003.4
2022-11-08T05:15:04.028Z,1003.4
2022-11-08T05:16:04.031Z,1003.4
2022-11-08T05:17:04.025Z,1003.4
2022-11-08T05:18:04.032Z,1003.4
2022-11-08T05:19:04.805Z,1003.4
2022-11-08T05:20:04.076Z,1003.4
2022-11-08T05:21:04.023Z,1003.3
2022-11-08T05:22:04.048Z,1003.4
2022-11-08T05:23:04.039Z,1003.4
2022-11-08T05:24:04.037Z,1003.4
2022-11-08T05:26:54.217Z,1003.3
2022-11-08T05:27:04.604Z,1003.3
2022-11-08T05:28:03.907Z,1003.3
2022-11-08T05:29:03.913Z,1003.3
2022-11-08T05:30:03.905Z,1003.3
2022-11-08T05:31:03.920Z,1003.3
2022-11-08T05:32:03.950Z,1003.3
2022-11-08T05:33:03.926Z,1003.3
2022-11-08T05:34:10.666Z,1003.3
2022-11-08T05:35:04.384Z,1003.3
2022-11-08T05:36:05.981Z,1003.3
2022-11-08T05:37:04.389Z,1003.3
2022-11-08T05:38:04.387Z,1003.3
2022-11-08T05:39:11.178Z,1003.2
2022-11-08T05:40:04.512Z,1003.2
2022-11-08T05:41:03.843Z,1003.2
2022-11-08T05:42:03.846Z,1003.2
2022-11-08T05:43:03.838Z,1003.2
2022-11-08T05:44:04.060Z,1003.2
2022-11-08T05:45:08.246Z,1003.2
2022-11-08T05:46:03.843Z,1003.2
2022-11-08T05:47:03.842Z,1003.2
2022-11-08T05:48:03.935Z,1003.2
2022-11-08T05:49:03.846Z,1003.2
2022-11-08T05:50:03.891Z,1003.1
2022-11-08T05:51:03.839Z,1003.0
2022-11-08T05:52:03.855Z,1003.1
2022-11-08T05:53:03.861Z,1003.1
2022-11-08T05:54:03.847Z,1003.1
2022-11-08T05:55:03.839Z,1003.0
2022-11-08T05:56:03.894Z,1003.0
2022-11-08T05:57:03.846Z,1003.0
2022-11-08T05:58:03.851Z,1003.0
2022-11-08T05:59:03.856Z,1002.9
2022-11-08T06:00:04.189Z,1002.9
2022-11-08T06:01:03.865Z,1003.0
2022-11-08T06:02:04.003Z,1003.0
2022-11-08T06:03:03.922Z,1003.0
2022-11-08T06:04:03.852Z,1003.0
2022-11-08T06:05:03.840Z,1003.0
2022-11-08T06:06:03.855Z,1003.0
2022-11-08T06:07:03.845Z,1003.0
2022-11-08T06:08:03.916Z,1003.0
2022-11-08T06:09:03.878Z,1003.0
2022-11-08T06:10:03.896Z,1003.0
2022-11-08T06:11:03.842Z,1003.0
2022-11-08T06:12:03.864Z,1003.0
2022-11-08T06:13:03.851Z,1003.0
2022-11-08T06:14:03.911Z,1003.0
2022-11-08T06:15:03.864Z,1003.0
2022-11-08T06:16:03.870Z,1002.9
2022-11-08T06:17:03.845Z,1002.8
2022-11-08T06:18:03.877Z,1003.0
2022-11-08T06:19:03.848Z,1003.0
2022-11-08T06:20:03.897Z,1003.0
2022-11-08T06:21:03.839Z,1003.0
2022-11-08T06:22:03.860Z,1003.0
2022-11-08T06:23:03.857Z,1003.0
2022-11-08T06:24:03.854Z,1003.0
2022-11-08T06:25:03.857Z,1003.0
2022-11-08T06:26:03.882Z,1003.0
2022-11-08T06:27:03.868Z,1003.0
2022-11-08T06:28:03.854Z,1003.0
2022-11-08T06:29:03.886Z,1003.0
2022-11-08T06:30:03.997Z,1003.0
2022-11-08T06:31:03.994Z,1003.0
2022-11-08T06:32:04.087Z,1003.1
2022-11-08T06:33:03.957Z,1003.1
2022-11-08T06:34:03.993Z,1003.1
2022-11-08T06:35:03.953Z,1003.1
2022-11-08T06:36:03.947Z,1003.1
2022-11-08T06:37:03.961Z,1003.2
2022-11-08T06:38:09.022Z,1003.2
2022-11-08T06:39:03.956Z,1003.2
2022-11-08T06:40:04.114Z,1003.2
2022-11-08T06:41:03.937Z,1003.2
2022-11-08T06:42:03.950Z,1003.2
2022-11-08T06:43:03.888Z,1003.2
2022-11-08T06:44:04.011Z,1003.2
2022-11-08T06:45:03.900Z,1003.2
2022-11-08T06:46:03.975Z,1003.1
2022-11-08T06:47:03.959Z,1003.2
2022-11-08T06:48:03.981Z,1003.2
2022-11-08T06:49:03.973Z,1003.2
2022-11-08T06:50:04.044Z,1003.2
2022-11-08T06:51:03.960Z,1003.1
2022-11-08T06:52:03.968Z,1003.1
2022-11-08T06:53:03.955Z,1003.1
2022-11-08T06:54:06.825Z,1003.2
2022-11-08T06:55:03.965Z,1003.1
2022-11-08T06:56:04.035Z,1003.1
2022-11-08T06:57:03.976Z,1003.1
2022-11-08T06:58:03.979Z,1003.1
2022-11-08T06:59:03.971Z,1003.1
2022-11-08T07:00:03.893Z,1003.1
2022-11-08T07:01:03.966Z,1003.1
2022-11-08T07:02:04.178Z,1003.0
2022-11-08T07:03:04.140Z,1003.1
2022-11-08T07:04:03.955Z,1003.1
2022-11-08T07:05:04.017Z,1003.1
2022-11-08T07:06:03.981Z,1003.1
2022-11-08T07:07:03.966Z,1003.1
2022-11-08T07:08:03.975Z,1003.2
2022-11-08T07:09:03.982Z,1003.2
2022-11-08T07:10:04.471Z,1003.2
2022-11-08T07:11:03.995Z,1003.2
2022-11-08T07:12:04.546Z,1003.2
2022-11-08T07:13:04.294Z,1003.2
2022-11-08T07:14:04.048Z,1003.2
2022-11-08T07:15:03.902Z,1003.2
2022-11-08T07:16:04.061Z,1003.2
2022-11-08T07:17:03.965Z,1003.2
2022-11-08T07:18:04.069Z,1003.1
2022-11-08T07:19:03.969Z,1003.2
2022-11-08T07:20:04.053Z,1003.2
2022-11-08T07:21:03.967Z,1003.2
2022-11-08T07:22:03.987Z,1003.1
2022-11-08T07:23:03.935Z,1003.1
2022-11-08T07:24:03.998Z,1003.1
2022-11-08T07:25:03.973Z,1003.0
2022-11-08T07:26:04.041Z,1003.0
2022-11-08T07:27:03.979Z,1003.0
2022-11-08T07:28:04.006Z,1003.0
2022-11-08T07:29:03.985Z,1003.0
2022-11-08T07:30:03.960Z,1003.1
2022-11-08T07:31:03.962Z,1003.2
2022-11-08T07:32:04.183Z,1003.2
2022-11-08T07:33:03.961Z,1003.2
2022-11-08T07:34:03.987Z,1003.2
2022-11-08T07:35:03.983Z,1003.2
2022-11-08T07:36:04.000Z,1003.2
2022-11-08T07:37:03.973Z,1003.2
2022-11-08T07:38:04.052Z,1003.2
2022-11-08T07:39:06.672Z,1003.2
2022-11-08T07:40:03.974Z,1003.3
2022-11-08T07:41:03.986Z,1003.3
2022-11-08T07:42:04.009Z,1003.3
2022-11-08T07:43:12.912Z,1003.3
2022-11-08T07:44:04.033Z,1003.3
2022-11-08T07:45:03.973Z,1003.3
2022-11-08T07:46:03.959Z,1003.3
2022-11-08T07:47:03.881Z,1003.3
2022-11-08T07:48:09.591Z,1003.3
2022-11-08T07:49:03.976Z,1003.3
2022-11-08T07:50:04.040Z,1003.3
2022-11-08T07:51:03.992Z,1003.3
2022-11-08T07:52:03.959Z,1003.4
2022-11-08T07:53:03.987Z,1003.3
2022-11-08T07:54:03.994Z,1003.4
2022-11-08T07:55:03.992Z,1003.3
2022-11-08T07:56:04.067Z,1003.3
2022-11-08T07:57:04.029Z,1003.4
2022-11-08T07:58:03.935Z,1003.4
2022-11-08T07:59:03.947Z,1003.4
2022-11-08T08:00:07.698Z,1003.5
2022-11-08T08:01:03.912Z,1003.5
2022-11-08T08:02:04.083Z,1003.5
2022-11-08T08:03:04.008Z,1003.5
2022-11-08T08:04:03.984Z,1003.5
2022-11-08T08:05:04.042Z,1003.5
2022-11-08T08:06:04.011Z,1003.5
2022-11-08T08:07:03.983Z,1003.5
2022-11-08T08:08:04.065Z,1003.4
2022-11-08T08:09:04.035Z,1003.4
2022-11-08T08:10:04.003Z,1003.4
2022-11-08T08:11:03.995Z,1003.4
2022-11-08T08:12:03.991Z,1003.4
2022-11-08T08:13:03.996Z,1003.3
2022-11-08T08:14:04.085Z,1003.3
2022-11-08T08:15:04.009Z,1003.3
2022-11-08T08:16:03.996Z,1003.3
2022-11-08T08:17:03.995Z,1003.4
2022-11-08T08:18:03.933Z,1003.5
2022-11-08T08:19:03.993Z,1003.5
2022-11-08T08:20:04.006Z,1003.5
2022-11-08T08:21:04.072Z,1003.5
2022-11-08T08:22:04.001Z,1003.5
2022-11-08T08:23:04.023Z,1003.5
2022-11-08T08:24:03.975Z,1003.5
2022-11-08T08:25:03.991Z,1003.5
2022-11-08T08:26:03.998Z,1003.5
2022-11-08T08:27:04.011Z,1003.5
2022-11-08T08:28:04.299Z,1003.5
2022-11-08T08:29:03.983Z,1003.5
2022-11-08T08:30:03.981Z,1003.5
2022-11-08T08:31:03.966Z,1003.6
2022-11-08T08:32:03.997Z,1003.6
2022-11-08T08:33:26.844Z,1003.6
2022-11-08T08:34:04.017Z,1003.5
2022-11-08T08:35:04.019Z,1003.6
2022-11-08T08:36:04.015Z,1003.6
2022-11-08T08:37:03.995Z,1003.5
2022-11-08T08:38:03.898Z,1003.6
2022-11-08T08:39:04.070Z,1003.6
2022-11-08T08:40:04.047Z,1003.7
2022-11-08T08:41:04.005Z,1003.7
2022-11-08T08:42:04.009Z,1003.6
2022-11-08T08:43:03.987Z,1003.6
2022-11-08T08:44:03.991Z,1003.6
2022-11-08T08:45:04.057Z,1003.6
2022-11-08T08:46:03.897Z,1003.6
2022-11-08T08:47:03.975Z,1003.6
2022-11-08T08:48:03.966Z,1003.5
2022-11-08T08:49:04.011Z,1003.6
2022-11-08T08:50:03.944Z,1003.5
2022-11-08T08:51:04.030Z,1003.5
2022-11-08T08:52:03.939Z,1003.6
2022-11-08T08:53:04.015Z,1003.5
2022-11-08T08:54:04.014Z,1003.5
2022-11-08T08:55:04.007Z,1003.5
2022-11-08T08:56:04.005Z,1003.5
2022-11-08T08:57:04.113Z,1003.5
2022-11-08T08:58:04.034Z,1003.5
2022-11-08T09:02:04.028Z,1003.4
2022-11-08T09:03:04.058Z,1003.5
2022-11-08T09:04:04.024Z,1003.5
2022-11-08T09:05:03.999Z,1003.5
2022-11-08T09:06:03.998Z,1003.4
2022-11-08T09:07:04.042Z,1003.4
2022-11-08T09:08:04.001Z,1003.4
2022-11-08T09:09:04.064Z,1003.5
2022-11-08T09:10:04.033Z,1003.5
2022-11-08T09:11:04.027Z,1003.5
2022-11-08T09:12:04.024Z,1003.5
2022-11-08T09:13:04.034Z,1003.5
2022-11-08T09:14:03.992Z,1003.6
2022-11-08T09:15:04.082Z,1003.6
2022-11-08T09:16:04.306Z,1003.5
2022-11-08T09:17:04.009Z,1003.6
2022-11-08T09:18:04.069Z,1003.5
2022-11-08T09:19:04.009Z,1003.5
2022-11-08T09:20:04.004Z,1003.5
2022-11-08T09:21:04.097Z,1003.5
2022-11-08T09:22:04.106Z,1003.5
2022-11-08T09:23:04.040Z,1003.5
2022-11-08T09:25:34.880Z,1003.5
2022-11-08T09:26:04.727Z,1003.5
2022-11-08T09:27:04.657Z,1003.5
2022-11-08T09:28:04.641Z,1003.5
2022-11-08T09:29:04.655Z,1003.5
2022-11-08T09:30:04.641Z,1003.5
2022-11-08T09:31:04.658Z,1003.5
2022-11-08T09:32:04.669Z,1003.5
2022-11-08T09:33:04.700Z,1003.6
2022-11-08T09:34:04.654Z,1003.5
2022-11-08T09:35:04.654Z,1003.5
2022-11-08T09:36:04.649Z,1003.5
2022-11-08T09:37:04.655Z,1003.5
2022-11-08T09:38:04.660Z,1003.4
2022-11-08T09:39:04.621Z,1003.4
2022-11-08T09:40:04.858Z,1003.4
2022-11-08T09:41:04.670Z,1003.4
2022-11-08T09:42:04.638Z,1003.3
2022-11-08T09:43:04.657Z,1003.3
2022-11-08T09:44:04.711Z,1003.3
2022-11-08T09:45:04.678Z,1003.3
2022-11-08T09:46:04.626Z,1003.3
2022-11-08T09:47:04.584Z,1003.4
2022-11-08T09:48:05.388Z,1003.4
2022-11-08T09:49:04.638Z,1003.4
2022-11-08T09:50:04.696Z,1003.4
2022-11-08T09:51:04.640Z,1003.4
2022-11-08T09:52:04.645Z,1003.4
2022-11-08T09:53:04.648Z,1003.4
2022-11-08T09:54:04.611Z,1003.4
2022-11-08T09:55:04.668Z,1003.5
2022-11-08T09:56:04.596Z,1003.4
2022-11-08T09:57:04.548Z,1003.5
2022-11-08T09:58:04.543Z,1003.5
2022-11-08T09:59:04.551Z,1003.5
2022-11-08T10:00:04.607Z,1003.5
2022-11-08T10:01:04.568Z,1003.5
2022-11-08T10:02:04.691Z,1003.5
2022-11-08T10:03:04.541Z,1003.4
2022-11-08T10:04:04.544Z,1003.5
2022-11-08T10:05:04.636Z,1003.4
2022-11-08T10:06:04.550Z,1003.4
2022-11-08T10:07:04.617Z,1003.4
2022-11-08T10:08:04.599Z,1003.4
2022-11-08T10:09:04.541Z,1003.5
2022-11-08T10:10:04.553Z,1003.5
2022-11-08T10:11:04.556Z,1003.5
2022-11-08T10:12:04.555Z,1003.4
2022-11-08T10:13:04.559Z,1003.4
2022-11-08T10:14:04.616Z,1003.4
2022-11-08T10:15:04.540Z,1003.4
2022-11-08T10:16:04.557Z,1003.4
2022-11-08T10:17:04.563Z,1003.4
2022-11-08T10:18:04.537Z,1003.3
2022-11-08T10:19:04.663Z,1003.3
2022-11-08T10:20:31.006Z,1003.3
2022-11-08T10:21:03.708Z,1003.3
2022-11-08T10:22:03.699Z,1003.3
2022-11-08T10:23:03.697Z,1003.3
2022-11-08T10:24:03.707Z,1003.3
2022-11-08T10:25:03.743Z,1003.3
2022-11-08T10:26:10.482Z,1003.2
2022-11-08T10:27:04.206Z,1003.3
2022-11-08T10:28:04.206Z,1003.2
2022-11-08T10:29:04.206Z,1003.3
2022-11-08T10:30:11.014Z,1003.2
2022-11-08T10:31:03.690Z,1003.2
2022-11-08T10:32:10.429Z,1003.2
2022-11-08T10:33:04.156Z,1003.2
2022-11-08T10:34:06.880Z,1003.3
2022-11-08T10:35:10.876Z,1003.2
2022-11-08T10:36:04.589Z,1003.3
2022-11-08T10:37:04.628Z,1003.2
2022-11-08T10:38:04.594Z,1003.2
2022-11-08T10:39:04.593Z,1003.2
2022-11-08T10:40:04.593Z,1003.2
2022-11-08T10:41:05.508Z,1003.2
2022-11-08T10:42:04.614Z,1003.2
2022-11-08T10:43:09.202Z,1003.3
2022-11-08T10:44:04.611Z,1003.3
2022-11-08T10:45:04.603Z,1003.3
2022-11-08T10:46:04.621Z,1003.3
2022-11-08T10:47:04.592Z,1003.3
2022-11-08T10:48:04.607Z,1003.3
2022-11-08T10:49:04.630Z,1003.3
2022-11-08T10:50:04.729Z,1003.3
2022-11-08T10:51:04.602Z,1003.2
2022-11-08T10:52:04.607Z,1003.2
2022-11-08T10:53:04.636Z,1003.2
2022-11-08T10:55:04.937Z,1003.2
2022-11-08T10:56:04.792Z,1003.3
2022-11-08T10:57:05.751Z,1003.3
2022-11-08T10:58:04.666Z,1003.3
2022-11-08T10:59:04.679Z,1003.2
2022-11-08T11:00:04.698Z,1003.2
2022-11-08T11:01:04.770Z,1003.2
2022-11-08T11:02:04.787Z,1003.2
2022-11-08T11:03:04.700Z,1003.2
2022-11-08T11:04:04.743Z,1003.2
2022-11-08T11:05:04.808Z,1003.2
2022-11-08T11:06:04.722Z,1003.2
2022-11-08T11:07:04.763Z,1003.2
2022-11-08T11:08:04.720Z,1003.2
2022-11-08T11:09:04.715Z,1003.1
2022-11-08T11:10:04.725Z,1003.1
2022-11-08T11:11:04.711Z,1003.2
2022-11-08T11:12:04.724Z,1003.2
2022-11-08T11:13:04.705Z,1003.2
2022-11-08T11:14:04.760Z,1003.1
2022-11-08T11:15:04.958Z,1003.1
2022-11-08T11:16:04.646Z,1003.0
2022-11-08T11:17:04.607Z,1003.0
2022-11-08T11:18:04.636Z,1003.0
2022-11-08T11:19:04.596Z,1003.0
2022-11-08T11:20:04.653Z,1003.0
2022-11-08T11:21:04.603Z,1003.0
2022-11-08T11:22:04.637Z,1003.0
2022-11-08T11:23:04.606Z,1003.0
2022-11-08T11:24:04.597Z,1003.0
2022-11-08T11:25:04.595Z,1003.0
2022-11-08T11:27:35.517Z,1002.8
2022-11-08T11:28:04.202Z,1002.8
2022-11-08T11:29:04.202Z,1002.8
2022-11-08T11:30:09.211Z,1002.8
2022-11-08T11:31:04.209Z,1002.9
2022-11-08T11:32:04.203Z,1003.0
2022-11-08T11:33:04.304Z,1003.0
2022-11-08T11:34:04.191Z,1002.8
2022-11-08T11:35:04.251Z,1002.8
2022-11-08T11:36:06.060Z,1002.8
2022-11-08T11:37:04.206Z,1002.8
2022-11-08T11:38:04.197Z,1002.7
2022-11-08T11:39:04.231Z,1002.7
2022-11-08T11:40:04.222Z,1002.7
2022-11-08T11:41:09.762Z,1002.7
2022-11-08T11:42:24.093Z,1002.7
2022-11-08T11:43:04.206Z,1002.7
2022-11-08T11:44:04.216Z,1002.7
2022-11-08T11:45:04.751Z,1002.7
2022-11-08T11:46:04.198Z,1002.7
2022-11-08T11:47:04.204Z,1002.7
2022-11-08T11:48:04.207Z,1002.7
2022-11-08T11:49:04.206Z,1002.7
2022-11-08T11:50:04.201Z,1002.7
2022-11-08T11:51:04.319Z,1002.7
2022-11-08T11:52:10.947Z,1002.8
2022-11-08T11:53:03.683Z,1002.7
2022-11-08T11:54:03.725Z,1002.7
2022-11-08T11:55:03.777Z,1002.7
2022-11-08T11:56:03.773Z,1002.7
2022-11-08T11:57:03.772Z,1002.7
2022-11-08T11:58:03.748Z,1002.6
2022-11-08T11:59:03.777Z,1002.6
2022-11-08T12:00:03.715Z,1002.6
2022-11-08T12:01:03.757Z,1002.6
2022-11-08T12:02:03.815Z,1002.6
2022-11-08T12:03:03.766Z,1002.6
2022-11-08T12:04:03.756Z,1002.6
2022-11-08T12:05:04.102Z,1002.6
2022-11-08T12:06:03.786Z,1002.6
2022-11-08T12:07:05.543Z,1002.6
2022-11-08T12:08:03.851Z,1002.6
2022-11-08T12:09:06.305Z,1002.6
2022-11-08T12:10:03.665Z,1002.7
2022-11-08T12:11:03.665Z,1002.7
2022-11-08T12:12:03.670Z,1002.7
2022-11-08T12:13:03.674Z,1002.6
2022-11-08T12:14:03.692Z,1002.6
2022-11-08T12:15:03.676Z,1002.6
2022-11-08T12:16:03.675Z,1002.6
2022-11-08T12:17:03.681Z,1002.6
2022-11-08T12:18:03.728Z,1002.5
2022-11-08T12:19:03.742Z,1002.5
2022-11-08T12:20:04.818Z,1002.5
2022-11-08T12:21:03.728Z,1002.5
2022-11-08T12:22:03.721Z,1002.5
2022-11-08T12:23:03.747Z,1002.5
2022-11-08T12:24:03.759Z,1002.4
2022-11-08T12:25:03.753Z,1002.5
2022-11-08T12:26:03.751Z,1002.5
2022-11-08T12:27:03.742Z,1002.4
2022-11-08T12:28:03.763Z,1002.5
2022-11-08T12:29:03.713Z,1002.5
2022-11-08T12:30:03.679Z,1002.5
2022-11-08T12:31:03.697Z,1002.5
2022-11-08T12:32:03.715Z,1002.5
2022-11-08T12:33:03.710Z,1002.4
2022-11-08T12:34:03.743Z,1002.4
2022-11-08T12:35:03.744Z,1002.4
2022-11-08T12:36:03.901Z,1002.4